• Join FlightAware (Why Join?)
  • Login
  • US Flag 
01:30AM EDT


 

Airport Tracker/Info


-or-


 

Live Flight TrackerFlight Track Log ✈ KAP16 ✈ 21-Jun-2013 ✈ KSTL - KUIN

Flight Track Log - Related Links

Times and Time Zones

All times are in EDT time to prevent confusion due to time zone crossing. See the KAP16 flight status page for this flight to view local times or setup timezone preferences in your user account.

Time Position Orientation Groundspeed Altitude Reporting Facility
EDT Latitude Longitude Course Direction KTS MPH feet Rate Location/Type
03:30PM 38.7333 -90.3167 360° North 126 145 1,400  Level Gateway (St. Louis) TRACON
03:31PM 38.7667 -90.3167 360° North 147 169 2,000 720 Climbing Gateway (St. Louis) TRACON
03:32PM 38.7964 -90.3203 355° North 151 174 2,500 900 Climbing Kansas City Center
03:33PM 38.8364 -90.3347 344° North 152 175 3,500 840 Climbing Kansas City Center
03:34PM 38.8733 -90.3544 337° Northwest 149 171 4,300 780 Climbing Kansas City Center
03:35PM 38.9122 -90.3678 345° North 146 168 5,200 960 Climbing Kansas City Center
03:36PM 38.9572 -90.3889 340° North 144 166 6,300 840 Climbing Kansas City Center
03:37PM 38.9944 -90.4006 346° North 140 161 7,000 540 Climbing Kansas City Center
03:38PM 39.0328 -90.4286 330° Northwest 154 177 7,500 300 Climbing Kansas City Center
03:39PM 39.0700 -90.4567 330° Northwest 155 178 7,700 240 Climbing Kansas City Center
03:40PM 39.1044 -90.4872 325° Northwest 153 176 8,000 240 Climbing Kansas City Center
03:41PM 39.1397 -90.5181 326° Northwest 153 176 8,300 240 Climbing Kansas City Center
03:42PM 39.1817 -90.5542 326° Northwest 152 175 8,600 60 Climbing Kansas City Center
03:43PM 39.2192 -90.5878 325° Northwest 158 182 8,500 -60 Descending Kansas City Center
03:44PM 39.2597 -90.6225 326° Northwest 170 196 8,500  Level Kansas City Center
03:45PM 39.2997 -90.6567 327° Northwest 174 200 8,500  Level Kansas City Center
03:46PM 39.3389 -90.6886 328° Northwest 169 194 8,500  Level Kansas City Center
03:47PM 39.3767 -90.7192 328° Northwest 163 188 8,500  Level Kansas City Center
03:48PM 39.4228 -90.7539 330° Northwest 161 185 8,500  Level Kansas City Center
03:49PM 39.4589 -90.7817 329° Northwest 155 178 8,500  Level Kansas City Center
03:50PM 39.4953 -90.8094 330° Northwest 153 176 8,500 -180 Level Kansas City Center
03:51PM 39.5328 -90.8403 328° Northwest 157 181 8,200 -360 Descending Kansas City Center
03:52PM 39.5700 -90.8717 327° Northwest 160 184 7,800 -480 Descending Kansas City Center
03:53PM 39.6147 -90.9075 328° Northwest 158 182 7,200 -480 Descending Kansas City Center
03:54PM 39.6531 -90.9356 331° Northwest 159 183 6,800 -420 Descending Kansas City Center
03:55PM 39.6919 -90.9633 331° Northwest 160 184 6,400 -480 Descending Kansas City Center
03:56PM 39.7353 -90.9847 339° North 164 189 5,900 -540 Descending Kansas City Center
03:57PM 39.7761 -91.0186 327° Northwest 161 185 5,400 -540 Descending Kansas City Center